sensor_id;sensor_type;location;lat;lon;timestamp;P1;durP1;ratioP1;P2;durP2;ratioP2
19101;SDS011;9683;49.028;12.064;2023-02-28T00:00:00;79.00;;;19.02;;
19101;SDS011;9683;49.028;12.064;2023-02-28T00:02:33;112.82;;;24.88;;
19101;SDS011;9683;49.028;12.064;2023-02-28T00:05:00;149.27;;;26.05;;
19101;SDS011;9683;49.028;12.064;2023-02-28T00:07:28;94.20;;;19.30;;
19101;SDS011;9683;49.028;12.064;2023-02-28T00:09:57;131.02;;;22.90;;
19101;SDS011;9683;49.028;12.064;2023-02-28T00:12:23;163.43;;;33.90;;
19101;SDS011;9683;49.028;12.064;2023-02-28T00:14:50;165.80;;;33.95;;
19101;SDS011;9683;49.028;12.064;2023-02-28T00:17:18;138.85;;;30.48;;
19101;SDS011;9683;49.028;12.064;2023-02-28T00:19:47;121.18;;;25.67;;
19101;SDS011;9683;49.028;12.064;2023-02-28T00:22:14;179.15;;;36.55;;
19101;SDS011;9683;49.028;12.064;2023-02-28T00:24:41;116.78;;;22.50;;
19101;SDS011;9683;49.028;12.064;2023-02-28T00:27:09;92.00;;;21.23;;
19101;SDS011;9683;49.028;12.064;2023-02-28T00:29:36;166.98;;;35.65;;
19101;SDS011;9683;49.028;12.064;2023-02-28T00:32:04;100.18;;;24.50;;
19101;SDS011;9683;49.028;12.064;2023-02-28T00:34:31;77.55;;;18.33;;
19101;SDS011;9683;49.028;12.064;2023-02-28T00:37:02;113.07;;;22.65;;
19101;SDS011;9683;49.028;12.064;2023-02-28T00:39:30;181.98;;;32.35;;
19101;SDS011;9683;49.028;12.064;2023-02-28T00:41:56;99.75;;;20.77;;
19101;SDS011;9683;49.028;12.064;2023-02-28T00:44:24;129.35;;;30.80;;
19101;SDS011;9683;49.028;12.064;2023-02-28T00:46:51;66.85;;;18.98;;
19101;SDS011;9683;49.028;12.064;2023-02-28T00:49:19;156.25;;;26.15;;
19101;SDS011;9683;49.028;12.064;2023-02-28T00:51:45;179.32;;;36.75;;
19101;SDS011;9683;49.028;12.064;2023-02-28T00:54:12;141.48;;;35.55;;
19101;SDS011;9683;49.028;12.064;2023-02-28T00:56:39;130.63;;;39.45;;
19101;SDS011;9683;49.028;12.064;2023-02-28T00:59:05;199.88;;;49.08;;
19101;SDS011;9683;49.028;12.064;2023-02-28T01:01:33;116.65;;;33.50;;
19101;SDS011;9683;49.028;12.064;2023-02-28T01:04:00;189.90;;;42.15;;
19101;SDS011;9683;49.028;12.064;2023-02-28T01:06:27;129.63;;;35.75;;
19101;SDS011;9683;49.028;12.064;2023-02-28T01:08:53;89.57;;;32.13;;
19101;SDS011;9683;49.028;12.064;2023-02-28T01:11:20;81.60;;;27.92;;
19101;SDS011;9683;49.028;12.064;2023-02-28T01:13:46;124.03;;;39.60;;
19101;SDS011;9683;49.028;12.064;2023-02-28T01:16:13;143.55;;;36.53;;
19101;SDS011;9683;49.028;12.064;2023-02-28T01:18:41;130.70;;;29.55;;
19101;SDS011;9683;49.028;12.064;2023-02-28T01:21:09;143.20;;;28.98;;
19101;SDS011;9683;49.028;12.064;2023-02-28T01:23:37;96.53;;;20.65;;
19101;SDS011;9683;49.028;12.064;2023-02-28T01:26:04;114.20;;;27.23;;
19101;SDS011;9683;49.028;12.064;2023-02-28T01:28:32;182.43;;;35.75;;
19101;SDS011;9683;49.028;12.064;2023-02-28T01:30:58;116.90;;;26.83;;
19101;SDS011;9683;49.028;12.064;2023-02-28T01:33:25;127.55;;;31.95;;
19101;SDS011;9683;49.028;12.064;2023-02-28T01:35:58;77.03;;;22.45;;
19101;SDS011;9683;49.028;12.064;2023-02-28T01:38:25;131.02;;;30.48;;
19101;SDS011;9683;49.028;12.064;2023-02-28T01:40:51;106.13;;;26.15;;
19101;SDS011;9683;49.028;12.064;2023-02-28T01:43:22;163.95;;;35.53;;
19101;SDS011;9683;49.028;12.064;2023-02-28T01:45:50;83.43;;;21.58;;
19101;SDS011;9683;49.028;12.064;2023-02-28T01:48:17;95.40;;;25.98;;
19101;SDS011;9683;49.028;12.064;2023-02-28T01:50:45;104.13;;;27.02;;
19101;SDS011;9683;49.028;12.064;2023-02-28T01:53:16;130.70;;;33.28;;
19101;SDS011;9683;49.028;12.064;2023-02-28T01:55:48;71.22;;;22.92;;
19101;SDS011;9683;49.028;12.064;2023-02-28T01:58:17;93.13;;;20.85;;
19101;SDS011;9683;49.028;12.064;2023-02-28T02:00:44;86.15;;;17.75;;
19101;SDS011;9683;49.028;12.064;2023-02-28T02:03:12;109.50;;;20.98;;
19101;SDS011;9683;49.028;12.064;2023-02-28T02:05:40;133.13;;;32.45;;
19101;SDS011;9683;49.028;12.064;2023-02-28T02:08:13;84.22;;;24.73;;
19101;SDS011;9683;49.028;12.064;2023-02-28T02:10:44;114.95;;;34.85;;
19101;SDS011;9683;49.028;12.064;2023-02-28T02:13:28;131.30;;;31.63;;
19101;SDS011;9683;49.028;12.064;2023-02-28T02:16:14;133.40;;;31.75;;
19101;SDS011;9683;49.028;12.064;2023-02-28T02:18:50;83.53;;;26.63;;
19101;SDS011;9683;49.028;12.064;2023-02-28T02:24:33;127.95;;;34.13;;
19101;SDS011;9683;49.028;12.064;2023-02-28T02:27:22;157.85;;;43.80;;
19101;SDS011;9683;49.028;12.064;2023-02-28T02:33:06;100.93;;;35.92;;
19101;SDS011;9683;49.028;12.064;2023-02-28T02:35:55;125.15;;;39.10;;
19101;SDS011;9683;49.028;12.064;2023-02-28T02:38:29;154.43;;;55.65;;
19101;SDS011;9683;49.028;12.064;2023-02-28T02:41:02;109.32;;;23.48;;
19101;SDS011;9683;49.028;12.064;2023-02-28T02:43:35;117.82;;;23.13;;
19101;SDS011;9683;49.028;12.064;2023-02-28T02:46:06;112.53;;;28.23;;
19101;SDS011;9683;49.028;12.064;2023-02-28T02:48:38;76.18;;;18.48;;
19101;SDS011;9683;49.028;12.064;2023-02-28T02:51:10;115.10;;;22.63;;
19101;SDS011;9683;49.028;12.064;2023-02-28T02:53:40;90.25;;;17.35;;
19101;SDS011;9683;49.028;12.064;2023-02-28T02:56:09;94.78;;;18.48;;
19101;SDS011;9683;49.028;12.064;2023-02-28T02:58:39;117.45;;;22.90;;
19101;SDS011;9683;49.028;12.064;2023-02-28T03:01:08;170.23;;;27.65;;
19101;SDS011;9683;49.028;12.064;2023-02-28T03:03:39;93.72;;;19.10;;
19101;SDS011;9683;49.028;12.064;2023-02-28T03:06:06;130.98;;;23.13;;
19101;SDS011;9683;49.028;12.064;2023-02-28T03:08:35;79.57;;;15.70;;
19101;SDS011;9683;49.028;12.064;2023-02-28T03:11:03;243.70;;;37.28;;
19101;SDS011;9683;49.028;12.064;2023-02-28T03:16:40;97.20;;;15.82;;
19101;SDS011;9683;49.028;12.064;2023-02-28T03:19:41;190.65;;;29.58;;
19101;SDS011;9683;49.028;12.064;2023-02-28T03:22:21;163.88;;;26.98;;
19101;SDS011;9683;49.028;12.064;2023-02-28T03:25:00;251.48;;;36.20;;
19101;SDS011;9683;49.028;12.064;2023-02-28T03:27:35;140.93;;;23.45;;
19101;SDS011;9683;49.028;12.064;2023-02-28T03:30:06;102.25;;;18.15;;
19101;SDS011;9683;49.028;12.064;2023-02-28T03:32:38;138.90;;;23.85;;
19101;SDS011;9683;49.028;12.064;2023-02-28T03:35:09;102.57;;;19.10;;
19101;SDS011;9683;49.028;12.064;2023-02-28T03:37:39;71.38;;;13.00;;
19101;SDS011;9683;49.028;12.064;2023-02-28T03:40:10;213.77;;;34.25;;
19101;SDS011;9683;49.028;12.064;2023-02-28T03:42:39;129.25;;;20.48;;
19101;SDS011;9683;49.028;12.064;2023-02-28T03:45:10;155.77;;;40.55;;
19101;SDS011;9683;49.028;12.064;2023-02-28T03:47:40;101.60;;;22.00;;
19101;SDS011;9683;49.028;12.064;2023-02-28T03:50:10;132.32;;;27.05;;
19101;SDS011;9683;49.028;12.064;2023-02-28T03:52:44;104.13;;;19.45;;
19101;SDS011;9683;49.028;12.064;2023-02-28T03:55:17;114.72;;;21.98;;
19101;SDS011;9683;49.028;12.064;2023-02-28T03:57:47;107.78;;;28.73;;
19101;SDS011;9683;49.028;12.064;2023-02-28T04:00:25;135.23;;;26.80;;
19101;SDS011;9683;49.028;12.064;2023-02-28T04:02:55;99.32;;;24.27;;
19101;SDS011;9683;49.028;12.064;2023-02-28T04:05:22;84.68;;;17.70;;
19101;SDS011;9683;49.028;12.064;2023-02-28T04:07:49;87.70;;;16.27;;
19101;SDS011;9683;49.028;12.064;2023-02-28T04:10:17;93.75;;;23.20;;
19101;SDS011;9683;49.028;12.064;2023-02-28T04:12:44;132.35;;;22.30;;
19101;SDS011;9683;49.028;12.064;2023-02-28T04:15:10;107.35;;;20.02;;
19101;SDS011;9683;49.028;12.064;2023-02-28T04:17:37;132.30;;;20.92;;
19101;SDS011;9683;49.028;12.064;2023-02-28T04:20:04;102.28;;;20.48;;
19101;SDS011;9683;49.028;12.064;2023-02-28T04:22:34;81.45;;;23.92;;
19101;SDS011;9683;49.028;12.064;2023-02-28T04:25:01;129.13;;;21.65;;
19101;SDS011;9683;49.028;12.064;2023-02-28T04:27:29;70.20;;;13.40;;
19101;SDS011;9683;49.028;12.064;2023-02-28T04:29:56;144.60;;;25.80;;
19101;SDS011;9683;49.028;12.064;2023-02-28T04:32:22;62.30;;;16.30;;
19101;SDS011;9683;49.028;12.064;2023-02-28T04:34:49;90.43;;;24.95;;
19101;SDS011;9683;49.028;12.064;2023-02-28T04:37:16;77.75;;;19.30;;
19101;SDS011;9683;49.028;12.064;2023-02-28T04:39:42;86.00;;;26.25;;
19101;SDS011;9683;49.028;12.064;2023-02-28T04:42:09;99.60;;;24.13;;
19101;SDS011;9683;49.028;12.064;2023-02-28T04:44:38;507.92;;;98.93;;
19101;SDS011;9683;49.028;12.064;2023-02-28T04:47:04;90.18;;;21.05;;
19101;SDS011;9683;49.028;12.064;2023-02-28T04:49:31;80.60;;;17.55;;
19101;SDS011;9683;49.028;12.064;2023-02-28T04:51:58;102.93;;;20.60;;
19101;SDS011;9683;49.028;12.064;2023-02-28T04:54:24;126.75;;;21.45;;
19101;SDS011;9683;49.028;12.064;2023-02-28T04:56:51;117.07;;;19.50;;
19101;SDS011;9683;49.028;12.064;2023-02-28T04:59:17;128.05;;;22.20;;
19101;SDS011;9683;49.028;12.064;2023-02-28T05:01:46;103.82;;;23.00;;
19101;SDS011;9683;49.028;12.064;2023-02-28T05:04:15;128.55;;;27.23;;
19101;SDS011;9683;49.028;12.064;2023-02-28T05:06:41;134.73;;;24.25;;
19101;SDS011;9683;49.028;12.064;2023-02-28T05:09:08;97.15;;;17.10;;
19101;SDS011;9683;49.028;12.064;2023-02-28T05:11:36;107.82;;;22.90;;
19101;SDS011;9683;49.028;12.064;2023-02-28T05:14:04;98.80;;;27.33;;
19101;SDS011;9683;49.028;12.064;2023-02-28T05:16:32;163.05;;;31.95;;
19101;SDS011;9683;49.028;12.064;2023-02-28T05:19:01;100.75;;;20.02;;
19101;SDS011;9683;49.028;12.064;2023-02-28T05:21:28;84.95;;;20.73;;
19101;SDS011;9683;49.028;12.064;2023-02-28T05:23:57;172.43;;;31.83;;
19101;SDS011;9683;49.028;12.064;2023-02-28T05:26:25;102.85;;;18.88;;
19101;SDS011;9683;49.028;12.064;2023-02-28T05:28:52;102.90;;;20.23;;
19101;SDS011;9683;49.028;12.064;2023-02-28T05:31:19;77.13;;;15.73;;
19101;SDS011;9683;49.028;12.064;2023-02-28T05:33:46;135.70;;;21.45;;
19101;SDS011;9683;49.028;12.064;2023-02-28T05:36:14;120.60;;;23.77;;
19101;SDS011;9683;49.028;12.064;2023-02-28T05:38:41;118.50;;;19.80;;
19101;SDS011;9683;49.028;12.064;2023-02-28T05:41:08;103.20;;;18.52;;
19101;SDS011;9683;49.028;12.064;2023-02-28T05:43:36;144.45;;;23.90;;
19101;SDS011;9683;49.028;12.064;2023-02-28T05:46:04;191.55;;;32.13;;
19101;SDS011;9683;49.028;12.064;2023-02-28T05:48:31;74.63;;;15.20;;
19101;SDS011;9683;49.028;12.064;2023-02-28T05:50:58;124.93;;;19.23;;
19101;SDS011;9683;49.028;12.064;2023-02-28T05:53:26;126.07;;;21.48;;
19101;SDS011;9683;49.028;12.064;2023-02-28T05:55:53;81.07;;;13.70;;
19101;SDS011;9683;49.028;12.064;2023-02-28T05:58:19;120.90;;;20.92;;
19101;SDS011;9683;49.028;12.064;2023-02-28T06:00:46;117.18;;;20.23;;
19101;SDS011;9683;49.028;12.064;2023-02-28T06:03:13;186.40;;;32.65;;
19101;SDS011;9683;49.028;12.064;2023-02-28T06:05:40;60.85;;;11.45;;
19101;SDS011;9683;49.028;12.064;2023-02-28T06:08:06;180.32;;;29.38;;
19101;SDS011;9683;49.028;12.064;2023-02-28T06:10:34;68.07;;;12.18;;
19101;SDS011;9683;49.028;12.064;2023-02-28T06:13:01;123.88;;;21.98;;
19101;SDS011;9683;49.028;12.064;2023-02-28T06:15:29;126.22;;;21.60;;
19101;SDS011;9683;49.028;12.064;2023-02-28T06:17:56;147.55;;;23.95;;
19101;SDS011;9683;49.028;12.064;2023-02-28T06:20:23;183.07;;;27.65;;
19101;SDS011;9683;49.028;12.064;2023-02-28T06:22:51;87.00;;;14.90;;
19101;SDS011;9683;49.028;12.064;2023-02-28T06:25:19;143.27;;;22.17;;
19101;SDS011;9683;49.028;12.064;2023-02-28T06:27:47;151.25;;;22.67;;
19101;SDS011;9683;49.028;12.064;2023-02-28T06:30:14;147.07;;;23.27;;
19101;SDS011;9683;49.028;12.064;2023-02-28T06:32:41;82.63;;;14.50;;
19101;SDS011;9683;49.028;12.064;2023-02-28T06:35:08;171.95;;;27.15;;
19101;SDS011;9683;49.028;12.064;2023-02-28T06:37:35;162.95;;;25.08;;
19101;SDS011;9683;49.028;12.064;2023-02-28T06:40:01;156.43;;;23.05;;
19101;SDS011;9683;49.028;12.064;2023-02-28T06:42:31;196.15;;;30.58;;
19101;SDS011;9683;49.028;12.064;2023-02-28T06:44:58;111.75;;;20.17;;
19101;SDS011;9683;49.028;12.064;2023-02-28T06:47:25;122.03;;;19.92;;
19101;SDS011;9683;49.028;12.064;2023-02-28T06:49:52;91.57;;;15.18;;
19101;SDS011;9683;49.028;12.064;2023-02-28T06:52:18;200.52;;;30.90;;
19101;SDS011;9683;49.028;12.064;2023-02-28T06:54:45;114.50;;;19.25;;
19101;SDS011;9683;49.028;12.064;2023-02-28T06:57:11;91.50;;;15.10;;
19101;SDS011;9683;49.028;12.064;2023-02-28T06:59:38;170.55;;;24.60;;
19101;SDS011;9683;49.028;12.064;2023-02-28T07:02:07;102.05;;;16.35;;
19101;SDS011;9683;49.028;12.064;2023-02-28T07:04:34;160.35;;;23.85;;
19101;SDS011;9683;49.028;12.064;2023-02-28T07:07:00;128.25;;;19.17;;
19101;SDS011;9683;49.028;12.064;2023-02-28T07:09:27;152.45;;;23.58;;
19101;SDS011;9683;49.028;12.064;2023-02-28T07:11:55;173.32;;;25.17;;
19101;SDS011;9683;49.028;12.064;2023-02-28T07:14:21;30.25;;;6.18;;
19101;SDS011;9683;49.028;12.064;2023-02-28T07:16:48;121.80;;;19.15;;
19101;SDS011;9683;49.028;12.064;2023-02-28T07:19:16;141.05;;;22.10;;
19101;SDS011;9683;49.028;12.064;2023-02-28T07:21:43;98.05;;;15.60;;
19101;SDS011;9683;49.028;12.064;2023-02-28T07:24:10;100.63;;;17.08;;
19101;SDS011;9683;49.028;12.064;2023-02-28T07:26:36;83.13;;;14.15;;
19101;SDS011;9683;49.028;12.064;2023-02-28T07:29:03;83.20;;;16.70;;
19101;SDS011;9683;49.028;12.064;2023-02-28T07:31:30;73.70;;;13.10;;
19101;SDS011;9683;49.028;12.064;2023-02-28T07:33:57;63.33;;;11.13;;
19101;SDS011;9683;49.028;12.064;2023-02-28T07:36:25;61.90;;;11.50;;
19101;SDS011;9683;49.028;12.064;2023-02-28T07:38:51;125.22;;;21.20;;
19101;SDS011;9683;49.028;12.064;2023-02-28T07:41:18;99.85;;;16.25;;
19101;SDS011;9683;49.028;12.064;2023-02-28T07:43:46;140.20;;;25.88;;
19101;SDS011;9683;49.028;12.064;2023-02-28T07:46:13;146.40;;;22.42;;
19101;SDS011;9683;49.028;12.064;2023-02-28T07:48:41;125.85;;;20.60;;
19101;SDS011;9683;49.028;12.064;2023-02-28T07:51:08;105.22;;;18.73;;
19101;SDS011;9683;49.028;12.064;2023-02-28T07:53:36;88.65;;;17.20;;
19101;SDS011;9683;49.028;12.064;2023-02-28T07:56:03;132.23;;;23.20;;
19101;SDS011;9683;49.028;12.064;2023-02-28T07:58:30;96.50;;;18.90;;
19101;SDS011;9683;49.028;12.064;2023-02-28T08:00:57;110.30;;;18.98;;
19101;SDS011;9683;49.028;12.064;2023-02-28T08:03:31;105.78;;;19.10;;
19101;SDS011;9683;49.028;12.064;2023-02-28T08:05:58;95.35;;;16.88;;
19101;SDS011;9683;49.028;12.064;2023-02-28T08:08:24;78.88;;;15.02;;
19101;SDS011;9683;49.028;12.064;2023-02-28T08:10:57;89.28;;;19.58;;
19101;SDS011;9683;49.028;12.064;2023-02-28T08:13:24;119.22;;;22.55;;
19101;SDS011;9683;49.028;12.064;2023-02-28T08:15:52;118.97;;;33.55;;
19101;SDS011;9683;49.028;12.064;2023-02-28T08:18:19;154.00;;;27.13;;
19101;SDS011;9683;49.028;12.064;2023-02-28T08:20:45;95.95;;;16.77;;
19101;SDS011;9683;49.028;12.064;2023-02-28T08:23:12;123.47;;;20.40;;
19101;SDS011;9683;49.028;12.064;2023-02-28T08:25:38;88.20;;;15.23;;
19101;SDS011;9683;49.028;12.064;2023-02-28T08:28:06;80.95;;;15.35;;
19101;SDS011;9683;49.028;12.064;2023-02-28T08:30:33;113.88;;;19.38;;
19101;SDS011;9683;49.028;12.064;2023-02-28T08:32:59;89.63;;;16.33;;
19101;SDS011;9683;49.028;12.064;2023-02-28T08:35:26;88.05;;;14.02;;
19101;SDS011;9683;49.028;12.064;2023-02-28T08:37:53;73.65;;;12.68;;
19101;SDS011;9683;49.028;12.064;2023-02-28T08:40:20;95.45;;;18.30;;
19101;SDS011;9683;49.028;12.064;2023-02-28T08:42:46;145.85;;;22.98;;
19101;SDS011;9683;49.028;12.064;2023-02-28T08:45:14;89.25;;;16.40;;
19101;SDS011;9683;49.028;12.064;2023-02-28T08:47:41;94.15;;;16.13;;
19101;SDS011;9683;49.028;12.064;2023-02-28T08:50:08;98.05;;;17.35;;
19101;SDS011;9683;49.028;12.064;2023-02-28T08:52:35;109.35;;;22.75;;
19101;SDS011;9683;49.028;12.064;2023-02-28T08:55:03;93.90;;;18.38;;
19101;SDS011;9683;49.028;12.064;2023-02-28T08:57:30;137.23;;;20.98;;
19101;SDS011;9683;49.028;12.064;2023-02-28T08:59:57;80.13;;;15.93;;
19101;SDS011;9683;49.028;12.064;2023-02-28T09:02:25;120.10;;;23.60;;
19101;SDS011;9683;49.028;12.064;2023-02-28T09:04:52;90.28;;;16.38;;
19101;SDS011;9683;49.028;12.064;2023-02-28T09:07:19;91.72;;;20.05;;
19101;SDS011;9683;49.028;12.064;2023-02-28T09:09:45;87.20;;;20.70;;
19101;SDS011;9683;49.028;12.064;2023-02-28T09:12:19;111.88;;;20.52;;
19101;SDS011;9683;49.028;12.064;2023-02-28T09:14:46;101.00;;;20.25;;
19101;SDS011;9683;49.028;12.064;2023-02-28T09:17:13;97.90;;;19.92;;
19101;SDS011;9683;49.028;12.064;2023-02-28T09:19:41;88.32;;;20.60;;
19101;SDS011;9683;49.028;12.064;2023-02-28T09:22:08;131.18;;;25.13;;
19101;SDS011;9683;49.028;12.064;2023-02-28T09:24:35;115.53;;;24.83;;
19101;SDS011;9683;49.028;12.064;2023-02-28T09:27:03;104.07;;;23.13;;
19101;SDS011;9683;49.028;12.064;2023-02-28T09:29:30;86.82;;;21.33;;
19101;SDS011;9683;49.028;12.064;2023-02-28T09:31:57;63.20;;;17.17;;
19101;SDS011;9683;49.028;12.064;2023-02-28T09:34:23;127.68;;;30.27;;
19101;SDS011;9683;49.028;12.064;2023-02-28T09:36:51;118.32;;;29.13;;
19101;SDS011;9683;49.028;12.064;2023-02-28T09:39:19;167.00;;;30.63;;
19101;SDS011;9683;49.028;12.064;2023-02-28T09:41:47;112.13;;;30.00;;
19101;SDS011;9683;49.028;12.064;2023-02-28T09:44:18;134.55;;;40.45;;
19101;SDS011;9683;49.028;12.064;2023-02-28T09:46:51;117.20;;;40.75;;
19101;SDS011;9683;49.028;12.064;2023-02-28T09:49:22;104.35;;;35.33;;
19101;SDS011;9683;49.028;12.064;2023-02-28T09:51:55;147.93;;;49.35;;
19101;SDS011;9683;49.028;12.064;2023-02-28T09:54:26;140.60;;;50.72;;
19101;SDS011;9683;49.028;12.064;2023-02-28T09:56:56;126.53;;;48.97;;
19101;SDS011;9683;49.028;12.064;2023-02-28T09:59:33;135.52;;;47.85;;
19101;SDS011;9683;49.028;12.064;2023-02-28T10:02:21;143.30;;;52.80;;
19101;SDS011;9683;49.028;12.064;2023-02-28T10:05:06;151.15;;;56.28;;
19101;SDS011;9683;49.028;12.064;2023-02-28T10:07:42;128.80;;;53.08;;
19101;SDS011;9683;49.028;12.064;2023-02-28T10:10:21;139.43;;;55.17;;
19101;SDS011;9683;49.028;12.064;2023-02-28T10:12:52;156.68;;;59.05;;
19101;SDS011;9683;49.028;12.064;2023-02-28T10:15:23;161.15;;;63.53;;
19101;SDS011;9683;49.028;12.064;2023-02-28T10:17:54;157.70;;;60.85;;
19101;SDS011;9683;49.028;12.064;2023-02-28T10:20:25;139.15;;;57.22;;
19101;SDS011;9683;49.028;12.064;2023-02-28T10:22:58;130.15;;;57.15;;
19101;SDS011;9683;49.028;12.064;2023-02-28T10:25:32;181.80;;;65.10;;
19101;SDS011;9683;49.028;12.064;2023-02-28T10:28:01;154.73;;;65.75;;
19101;SDS011;9683;49.028;12.064;2023-02-28T10:30:36;141.63;;;60.28;;
19101;SDS011;9683;49.028;12.064;2023-02-28T10:33:04;180.10;;;67.35;;
19101;SDS011;9683;49.028;12.064;2023-02-28T10:35:30;173.73;;;65.43;;
19101;SDS011;9683;49.028;12.064;2023-02-28T10:38:00;150.02;;;60.50;;
19101;SDS011;9683;49.028;12.064;2023-02-28T10:40:36;147.20;;;57.80;;
19101;SDS011;9683;49.028;12.064;2023-02-28T10:43:03;151.30;;;63.97;;
19101;SDS011;9683;49.028;12.064;2023-02-28T10:45:31;167.13;;;66.47;;
19101;SDS011;9683;49.028;12.064;2023-02-28T10:48:00;153.20;;;67.80;;
19101;SDS011;9683;49.028;12.064;2023-02-28T10:50:31;171.88;;;71.78;;
19101;SDS011;9683;49.028;12.064;2023-02-28T10:53:13;183.10;;;74.22;;
19101;SDS011;9683;49.028;12.064;2023-02-28T10:55:55;176.77;;;68.25;;
19101;SDS011;9683;49.028;12.064;2023-02-28T10:58:24;198.93;;;82.22;;
19101;SDS011;9683;49.028;12.064;2023-02-28T11:00:52;240.43;;;95.80;;
19101;SDS011;9683;49.028;12.064;2023-02-28T11:03:24;225.98;;;85.97;;
19101;SDS011;9683;49.028;12.064;2023-02-28T11:05:55;211.80;;;83.57;;
19101;SDS011;9683;49.028;12.064;2023-02-28T11:08:23;257.23;;;94.82;;
19101;SDS011;9683;49.028;12.064;2023-02-28T11:10:54;202.20;;;80.95;;
19101;SDS011;9683;49.028;12.064;2023-02-28T11:13:25;253.07;;;101.72;;
19101;SDS011;9683;49.028;12.064;2023-02-28T11:15:54;221.70;;;91.15;;
19101;SDS011;9683;49.028;12.064;2023-02-28T11:18:24;218.35;;;89.07;;
19101;SDS011;9683;49.028;12.064;2023-02-28T11:20:56;209.85;;;85.68;;
19101;SDS011;9683;49.028;12.064;2023-02-28T11:23:27;265.15;;;99.00;;
19101;SDS011;9683;49.028;12.064;2023-02-28T11:25:56;232.82;;;88.15;;
19101;SDS011;9683;49.028;12.064;2023-02-28T11:28:26;223.63;;;91.50;;
19101;SDS011;9683;49.028;12.064;2023-02-28T11:31:00;224.95;;;93.82;;
19101;SDS011;9683;49.028;12.064;2023-02-28T11:33:29;282.90;;;109.43;;
19101;SDS011;9683;49.028;12.064;2023-02-28T11:35:57;251.15;;;96.78;;
19101;SDS011;9683;49.028;12.064;2023-02-28T11:38:28;243.68;;;96.88;;
19101;SDS011;9683;49.028;12.064;2023-02-28T11:40:59;231.18;;;95.45;;
19101;SDS011;9683;49.028;12.064;2023-02-28T11:43:38;260.70;;;102.35;;
19101;SDS011;9683;49.028;12.064;2023-02-28T11:46:20;216.07;;;91.35;;
19101;SDS011;9683;49.028;12.064;2023-02-28T11:48:58;232.13;;;92.38;;
19101;SDS011;9683;49.028;12.064;2023-02-28T11:51:32;209.23;;;91.85;;
19101;SDS011;9683;49.028;12.064;2023-02-28T11:56:55;225.10;;;99.00;;
19101;SDS011;9683;49.028;12.064;2023-02-28T11:59:32;264.48;;;107.03;;
19101;SDS011;9683;49.028;12.064;2023-02-28T12:02:18;248.68;;;97.43;;
19101;SDS011;9683;49.028;12.064;2023-02-28T12:04:52;252.70;;;105.95;;
19101;SDS011;9683;49.028;12.064;2023-02-28T12:07:39;257.00;;;109.13;;
19101;SDS011;9683;49.028;12.064;2023-02-28T12:10:20;283.73;;;111.50;;
19101;SDS011;9683;49.028;12.064;2023-02-28T12:12:50;270.80;;;108.00;;
19101;SDS011;9683;49.028;12.064;2023-02-28T12:15:34;281.23;;;109.93;;
19101;SDS011;9683;49.028;12.064;2023-02-28T12:18:19;277.85;;;112.13;;
19101;SDS011;9683;49.028;12.064;2023-02-28T12:20:53;308.30;;;121.00;;
19101;SDS011;9683;49.028;12.064;2023-02-28T12:23:48;349.83;;;136.38;;
19101;SDS011;9683;49.028;12.064;2023-02-28T12:26:25;297.10;;;118.03;;
19101;SDS011;9683;49.028;12.064;2023-02-28T12:29:02;340.55;;;125.13;;
19101;SDS011;9683;49.028;12.064;2023-02-28T12:31:36;324.02;;;123.85;;
19101;SDS011;9683;49.028;12.064;2023-02-28T12:34:07;320.58;;;123.95;;
19101;SDS011;9683;49.028;12.064;2023-02-28T12:36:38;340.50;;;130.23;;
19101;SDS011;9683;49.028;12.064;2023-02-28T12:39:08;377.40;;;134.02;;
19101;SDS011;9683;49.028;12.064;2023-02-28T12:41:41;367.13;;;135.95;;
19101;SDS011;9683;49.028;12.064;2023-02-28T12:44:12;337.80;;;129.40;;
19101;SDS011;9683;49.028;12.064;2023-02-28T12:46:44;319.35;;;125.28;;
19101;SDS011;9683;49.028;12.064;2023-02-28T12:49:15;352.42;;;131.52;;
19101;SDS011;9683;49.028;12.064;2023-02-28T12:51:44;331.27;;;134.48;;
19101;SDS011;9683;49.028;12.064;2023-02-28T12:54:13;359.48;;;133.82;;
19101;SDS011;9683;49.028;12.064;2023-02-28T12:56:49;390.50;;;145.38;;
19101;SDS011;9683;49.028;12.064;2023-02-28T12:59:23;479.75;;;152.70;;
19101;SDS011;9683;49.028;12.064;2023-02-28T13:01:57;479.88;;;155.45;;
19101;SDS011;9683;49.028;12.064;2023-02-28T13:10:23;499.23;;;160.40;;
19101;SDS011;9683;49.028;12.064;2023-02-28T13:12:53;533.17;;;167.15;;
19101;SDS011;9683;49.028;12.064;2023-02-28T13:15:22;543.38;;;181.15;;
19101;SDS011;9683;49.028;12.064;2023-02-28T13:17:53;532.05;;;170.98;;
19101;SDS011;9683;49.028;12.064;2023-02-28T13:20:23;503.10;;;162.98;;
19101;SDS011;9683;49.028;12.064;2023-02-28T13:22:51;449.48;;;157.27;;
19101;SDS011;9683;49.028;12.064;2023-02-28T13:31:25;447.38;;;163.95;;
19101;SDS011;9683;49.028;12.064;2023-02-28T13:34:04;426.13;;;164.95;;
19101;SDS011;9683;49.028;12.064;2023-02-28T13:36:38;435.30;;;163.52;;
19101;SDS011;9683;49.028;12.064;2023-02-28T13:39:15;422.17;;;174.88;;
19101;SDS011;9683;49.028;12.064;2023-02-28T13:45:22;415.38;;;169.02;;
19101;SDS011;9683;49.028;12.064;2023-02-28T13:47:51;409.48;;;164.00;;
19101;SDS011;9683;49.028;12.064;2023-02-28T13:50:21;376.83;;;165.30;;
19101;SDS011;9683;49.028;12.064;2023-02-28T13:52:56;444.52;;;181.63;;
19101;SDS011;9683;49.028;12.064;2023-02-28T13:55:32;407.33;;;175.15;;
19101;SDS011;9683;49.028;12.064;2023-02-28T13:58:15;421.38;;;181.05;;
19101;SDS011;9683;49.028;12.064;2023-02-28T14:01:00;401.33;;;177.10;;
19101;SDS011;9683;49.028;12.064;2023-02-28T14:03:41;383.23;;;167.55;;
19101;SDS011;9683;49.028;12.064;2023-02-28T14:06:22;358.05;;;164.15;;
19101;SDS011;9683;49.028;12.064;2023-02-28T14:08:52;357.95;;;173.00;;
19101;SDS011;9683;49.028;12.064;2023-02-28T14:11:26;373.95;;;178.52;;
19101;SDS011;9683;49.028;12.064;2023-02-28T14:13:56;418.33;;;182.77;;
19101;SDS011;9683;49.028;12.064;2023-02-28T14:16:25;455.75;;;189.05;;
19101;SDS011;9683;49.028;12.064;2023-02-28T14:18:56;458.25;;;192.98;;
19101;SDS011;9683;49.028;12.064;2023-02-28T14:21:25;394.27;;;177.13;;
19101;SDS011;9683;49.028;12.064;2023-02-28T14:26:55;412.17;;;181.60;;
19101;SDS011;9683;49.028;12.064;2023-02-28T14:29:35;385.35;;;169.88;;
19101;SDS011;9683;49.028;12.064;2023-02-28T14:32:13;239.60;;;125.07;;
19101;SDS011;9683;49.028;12.064;2023-02-28T14:34:48;182.87;;;78.73;;
19101;SDS011;9683;49.028;12.064;2023-02-28T14:37:19;141.98;;;51.55;;
19101;SDS011;9683;49.028;12.064;2023-02-28T14:39:50;182.18;;;93.40;;
19101;SDS011;9683;49.028;12.064;2023-02-28T14:42:30;166.43;;;67.70;;
19101;SDS011;9683;49.028;12.064;2023-02-28T14:44:58;99.77;;;42.93;;
19101;SDS011;9683;49.028;12.064;2023-02-28T14:47:27;127.67;;;48.70;;
19101;SDS011;9683;49.028;12.064;2023-02-28T14:49:56;110.00;;;30.47;;
19101;SDS011;9683;49.028;12.064;2023-02-28T14:52:24;116.43;;;33.53;;
19101;SDS011;9683;49.028;12.064;2023-02-28T14:54:54;119.83;;;22.03;;
19101;SDS011;9683;49.028;12.064;2023-02-28T14:57:23;94.00;;;16.10;;